Private Wetterstation Sandau
Wetterdaten: Sonntag, 01.01.2012
Datum Zeit Temp. A. Feuchte A. Luftdruck Regen Wind Richtung Richtung Taupunkt Windchill
01.01.2012 00:02 3,4 C 89 % 1011,4 hPa 0,0 l/m 7,6 km/h (2 Bft) S 180 1,8 C 1,4 C
01.01.2012 00:07 3,4 C 89 % 1011,4 hPa 0,0 l/m 4,3 km/h (1 Bft) S-SO 157 1,8 C 3,4 C
01.01.2012 00:12 3,4 C 89 % 1011,2 hPa 0,0 l/m 4,3 km/h (1 Bft) S-SO 157 1,8 C 3,4 C
01.01.2012 00:17 3,4 C 89 % 1011,2 hPa 0,0 l/m 2,5 km/h (1 Bft) S-SO 157 1,8 C 3,4 C
01.01.2012 00:22 3,4 C 90 % 1011,3 hPa 0,0 l/m 5,8 km/h (2 Bft) S-SO 157 1,9 C 2,0 C
01.01.2012 00:27 3,4 C 90 % 1011,4 hPa 0,0 l/m 2,5 km/h (1 Bft) SO 135 1,9 C 3,4 C
01.01.2012 00:32 3,4 C 90 % 1011,2 hPa 0,0 l/m 5,8 km/h (2 Bft) S-SO 157 1,9 C 2,0 C
01.01.2012 00:37 3,5 C 90 % 1011,3 hPa 0,0 l/m 0,0 km/h (0 Bft) SO 135 2,0 C 3,5 C
01.01.2012 00:42 3,5 C 90 % 1011,3 hPa 0,0 l/m 2,5 km/h (1 Bft) S-SO 157 2,0 C 3,5 C
01.01.2012 00:47 3,5 C 90 % 1011,3 hPa 0,0 l/m 3,6 km/h (1 Bft) S 180 2,0 C 3,5 C
01.01.2012 00:52 3,5 C 90 % 1011,3 hPa 0,0 l/m 2,2 km/h (1 Bft) SO 135 2,0 C 3,5 C
01.01.2012 00:57 3,5 C 90 % 1011,1 hPa 0,0 l/m 9,7 km/h (2 Bft) S-SO 157 2,0 C 0,9 C
01.01.2012 01:02 3,6 C 90 % 1011,1 hPa 0,0 l/m 2,9 km/h (1 Bft) O-SO 112 2,1 C 3,6 C
01.01.2012 01:07 3,6 C 90 % 1011,1 hPa 0,0 l/m 2,5 km/h (1 Bft) SO 135 2,1 C 3,6 C
01.01.2012 01:12 3,6 C 90 % 1011,2 hPa 0,0 l/m 6,5 km/h (2 Bft) S-SO 157 2,1 C 1,9 C
01.01.2012 01:17 3,6 C 91 % 1011,1 hPa 0,0 l/m 4,3 km/h (1 Bft) S-SO 157 2,3 C 3,6 C
01.01.2012 01:22 3,6 C 91 % 1011,1 hPa 0,0 l/m 2,5 km/h (1 Bft) S 180 2,3 C 3,6 C
01.01.2012 01:27 3,6 C 91 % 1011,3 hPa 0,0 l/m 8,6 km/h (2 Bft) S-SW 202 2,3 C 1,3 C
01.01.2012 01:32 3,6 C 91 % 1011,4 hPa 0,0 l/m 5,0 km/h (1 Bft) S 180 2,3 C 2,5 C
01.01.2012 01:37 3,6 C 91 % 1011,2 hPa 0,0 l/m 0,0 km/h (0 Bft) S-SO 157 2,3 C 3,6 C
01.01.2012 01:42 3,6 C 91 % 1011,0 hPa 0,0 l/m 3,2 km/h (1 Bft) S-SW 202 2,3 C 3,6 C
01.01.2012 01:47 3,6 C 91 % 1011,1 hPa 0,0 l/m 4,7 km/h (1 Bft) S 180 2,3 C 2,6 C
01.01.2012 01:52 3,6 C 91 % 1011,1 hPa 0,0 l/m 4,0 km/h (1 Bft) S-SW 202 2,3 C 3,6 C
01.01.2012 01:57 3,6 C 91 % 1011,1 hPa 0,0 l/m 0,0 km/h (0 Bft) S 180 2,3 C 3,6 C
01.01.2012 02:02 3,6 C 91 % 1011,0 hPa 0,5 l/m 3,6 km/h (1 Bft) S-SO 157 2,3 C 3,6 C
01.01.2012 02:07 3,7 C 91 % 1011,1 hPa 0,0 l/m 6,8 km/h (2 Bft) S-SO 157 2,4 C 2,0 C
01.01.2012 02:12 3,7 C 91 % 1011,1 hPa 0,0 l/m 4,7 km/h (1 Bft) S-SW 202 2,4 C 2,7 C
01.01.2012 02:17 3,8 C 91 % 1011,2 hPa 0,0 l/m 6,5 km/h (2 Bft) S 180 2,5 C 2,2 C
01.01.2012 02:22 3,8 C 91 % 1011,3 hPa 0,0 l/m 0,0 km/h (0 Bft) S 180 2,5 C 3,8 C
01.01.2012 02:27 3,8 C 91 % 1011,3 hPa 0,0 l/m 3,2 km/h (1 Bft) S-SO 157 2,5 C 3,8 C
01.01.2012 02:32 3,8 C 92 % 1011,1 hPa 0,0 l/m 6,1 km/h (2 Bft) SO 135 2,6 C 2,3 C
01.01.2012 02:37 3,8 C 92 % 1011,0 hPa 0,0 l/m 4,3 km/h (1 Bft) S-SO 157 2,6 C 3,8 C
01.01.2012 02:42 3,8 C 92 % 1011,0 hPa 0,0 l/m 3,2 km/h (1 Bft) S-SW 202 2,6 C 3,8 C
01.01.2012 02:47 3,9 C 92 % 1011,1 hPa 0,0 l/m 5,0 km/h (1 Bft) S 180 2,7 C 2,8 C
01.01.2012 02:52 3,9 C 92 % 1011,0 hPa 0,0 l/m 4,7 km/h (1 Bft) S-SO 157 2,7 C 3,0 C
01.01.2012 02:57 3,9 C 92 % 1011,0 hPa 0,0 l/m 3,2 km/h (1 Bft) S-SO 157 2,7 C 3,9 C
01.01.2012 03:02 3,9 C 92 % 1010,9 hPa 0,0 l/m 7,2 km/h (2 Bft) SO 135 2,7 C 2,1 C
01.01.2012 03:07 3,9 C 92 % 1010,8 hPa 0,0 l/m 2,9 km/h (1 Bft) SO 135 2,7 C 3,9 C
01.01.2012 03:12 3,9 C 92 % 1010,7 hPa 0,0 l/m 2,9 km/h (1 Bft) S 180 2,7 C 3,9 C
01.01.2012 03:17 3,9 C 92 % 1010,9 hPa 0,0 l/m 4,7 km/h (1 Bft) S 180 2,7 C 3,0 C
01.01.2012 03:22 3,9 C 92 % 1010,7 hPa 0,0 l/m 0,0 km/h (0 Bft) SO 135 2,7 C 3,9 C
01.01.2012 03:27 3,9 C 92 % 1010,7 hPa 0,0 l/m 2,2 km/h (1 Bft) S 180 2,7 C 3,9 C
01.01.2012 03:32 3,9 C 92 % 1010,8 hPa 0,0 l/m 4,0 km/h (1 Bft) S 180 2,7 C 3,9 C
01.01.2012 03:37 4,1 C 92 % 1010,9 hPa 0,0 l/m 2,9 km/h (1 Bft) SO 135 2,9 C 4,1 C
01.01.2012 03:42 4,1 C 92 % 1010,9 hPa 0,0 l/m 1,1 km/h (1 Bft) SO 135 2,9 C 4,1 C
01.01.2012 03:47 4,1 C 92 % 1010,6 hPa 0,0 l/m 2,2 km/h (1 Bft) SO 135 2,9 C 4,1 C
01.01.2012 03:52 4,1 C 92 % 1010,7 hPa 0,0 l/m 9,4 km/h (2 Bft) S-SO 157 2,9 C 1,7 C
01.01.2012 03:57 4,1 C 92 % 1010,6 hPa 0,0 l/m 5,8 km/h (2 Bft) S-SW 202 2,9 C 2,8 C
01.01.2012 04:02 4,1 C 92 % 1010,7 hPa 0,0 l/m 8,3 km/h (2 Bft) S-SO 157 2,9 C 2,0 C
01.01.2012 04:07 4,1 C 92 % 1010,6 hPa 0,0 l/m 5,4 km/h (1 Bft) S-SO 157 2,9 C 2,9 C
01.01.2012 04:12 4,1 C 92 % 1010,7 hPa 0,0 l/m 7,2 km/h (2 Bft) S-SO 157 2,9 C 2,3 C
01.01.2012 04:17 4,1 C 92 % 1010,6 hPa 0,0 l/m 7,2 km/h (2 Bft) S 180 2,9 C 2,3 C
01.01.2012 04:22 4,1 C 92 % 1010,5 hPa 0,0 l/m 5,8 km/h (2 Bft) S 180 2,9 C 2,8 C
01.01.2012 04:27 4,2 C 92 % 1010,5 hPa 0,0 l/m 5,8 km/h (2 Bft) S-SO 157 3,0 C 2,9 C
01.01.2012 04:32 4,2 C 92 % 1010,5 hPa 0,0 l/m 6,1 km/h (2 Bft) S-SO 157 3,0 C 2,8 C
01.01.2012 04:37 4,2 C 92 % 1010,6 hPa 0,0 l/m 4,3 km/h (1 Bft) S 180 3,0 C 4,2 C
01.01.2012 04:42 4,3 C 92 % 1010,4 hPa 0,0 l/m 4,0 km/h (1 Bft) S 180 3,1 C 4,3 C
01.01.2012 04:47 4,3 C 92 % 1010,5 hPa 0,0 l/m 3,6 km/h (1 Bft) S 180 3,1 C 4,3 C
01.01.2012 04:52 4,3 C 92 % 1010,6 hPa 0,0 l/m 8,3 km/h (2 Bft) S 180 3,1 C 2,2 C
01.01.2012 04:57 4,4 C 92 % 1010,6 hPa 0,0 l/m 0,0 km/h (0 Bft) S-SO 157 3,2 C 4,4 C
01.01.2012 05:02 4,4 C 92 % 1010,6 hPa 0,0 l/m 4,0 km/h (1 Bft) S-SO 157 3,2 C 4,4 C
01.01.2012 05:07 4,4 C 92 % 1010,5 hPa 0,0 l/m 4,7 km/h (1 Bft) S 180 3,2 C 3,5 C
01.01.2012 05:12 4,4 C 92 % 1010,4 hPa 0,0 l/m 8,6 km/h (2 Bft) S-SO 157 3,2 C 2,3 C
01.01.2012 05:17 4,4 C 92 % 1010,3 hPa 0,0 l/m 1,8 km/h (1 Bft) SO 135 3,2 C 4,4 C
01.01.2012 05:22 4,5 C 92 % 1010,2 hPa 0,0 l/m 14,4 km/h (3 Bft) S 180 3,3 C 1,2 C
01.01.2012 05:27 4,5 C 92 % 1010,2 hPa 0,0 l/m 6,1 km/h (2 Bft) SO 135 3,3 C 3,1 C
01.01.2012 05:32 4,5 C 92 % 1010,2 hPa 0,0 l/m 14,4 km/h (3 Bft) S 180 3,3 C 1,2 C
01.01.2012 05:37 4,5 C 92 % 1010,3 hPa 0,0 l/m 3,6 km/h (1 Bft) S-SO 157 3,3 C 4,5 C
01.01.2012 05:42 4,5 C 92 % 1010,2 hPa 0,0 l/m 7,6 km/h (2 Bft) S-SO 157 3,3 C 2,7 C
01.01.2012 05:47 4,5 C 92 % 1010,2 hPa 0,0 l/m 11,9 km/h (2 Bft) S 180 3,3 C 1,7 C
01.01.2012 05:52 4,6 C 92 % 1010,1 hPa 0,0 l/m 6,1 km/h (2 Bft) S-SO 157 3,4 C 3,2 C
01.01.2012 05:57 4,6 C 92 % 1010,2 hPa 0,0 l/m 10,1 km/h (2 Bft) S 180 3,4 C 2,2 C
01.01.2012 06:02 4,7 C 92 % 1010,3 hPa 0,0 l/m 6,1 km/h (2 Bft) S-SW 202 3,5 C 3,3 C
01.01.2012 06:07 4,7 C 92 % 1010,4 hPa 0,0 l/m 6,8 km/h (2 Bft) S-SW 202 3,5 C 3,1 C
01.01.2012 06:12 4,8 C 92 % 1010,4 hPa 0,0 l/m 13,0 km/h (3 Bft) S-SO 157 3,6 C 1,8 C
01.01.2012 06:17 4,8 C 92 % 1010,5 hPa 0,0 l/m 6,5 km/h (2 Bft) SW 225 3,6 C 3,3 C
01.01.2012 06:22 4,8 C 92 % 1010,4 hPa 0,0 l/m 11,2 km/h (2 Bft) S-SW 202 3,6 C 2,2 C
01.01.2012 06:27 4,9 C 92 % 1010,4 hPa 0,0 l/m 9,4 km/h (2 Bft) S-SO 157 3,7 C 2,7 C
01.01.2012 06:32 4,9 C 92 % 1010,2 hPa 0,5 l/m 9,7 km/h (2 Bft) S-SO 157 3,7 C 2,6 C
01.01.2012 06:37 4,9 C 92 % 1010,2 hPa 0,0 l/m 13,3 km/h (3 Bft) S-SO 157 3,7 C 1,9 C
01.01.2012 06:42 4,9 C 92 % 1010,1 hPa 0,0 l/m 2,5 km/h (1 Bft) S-SO 157 3,7 C 4,9 C
01.01.2012 06:47 4,9 C 92 % 1010,0 hPa 0,0 l/m 6,1 km/h (2 Bft) S-SO 157 3,7 C 3,6 C
01.01.2012 06:52 4,9 C 92 % 1009,9 hPa 0,0 l/m 6,5 km/h (2 Bft) S-SO 157 3,7 C 3,4 C
01.01.2012 06:57 4,9 C 92 % 1010,0 hPa 0,0 l/m 6,1 km/h (2 Bft) S-SO 157 3,7 C 3,6 C
01.01.2012 07:02 4,9 C 92 % 1010,1 hPa 0,0 l/m 10,8 km/h (2 Bft) S 180 3,7 C 2,4 C
01.01.2012 07:07 4,9 C 92 % 1010,0 hPa 0,0 l/m 7,9 km/h (2 Bft) S-SO 157 3,7 C 3,0 C
01.01.2012 07:12 5,0 C 93 % 1010,0 hPa 0,0 l/m 18,0 km/h (3 Bft) S-SO 157 4,0 C 1,3 C
01.01.2012 07:17 5,0 C 93 % 1009,8 hPa 0,0 l/m 8,3 km/h (2 Bft) S-SO 157 4,0 C 3,1 C
01.01.2012 07:22 5,1 C 93 % 1009,8 hPa 0,0 l/m 13,0 km/h (3 Bft) SW 225 4,1 C 2,2 C
01.01.2012 07:27 5,1 C 93 % 1009,8 hPa 0,0 l/m 10,1 km/h (2 Bft) S-SO 157 4,1 C 2,8 C
01.01.2012 07:32 5,1 C 93 % 1009,8 hPa 0,0 l/m 11,2 km/h (2 Bft) S 180 4,1 C 2,5 C
01.01.2012 07:37 5,1 C 93 % 1009,9 hPa 0,0 l/m 15,5 km/h (3 Bft) S 180 4,1 C 1,8 C
01.01.2012 07:42 5,2 C 93 % 1010,0 hPa 0,0 l/m 14,8 km/h (3 Bft) S 180 4,2 C 2,0 C
01.01.2012 07:47 5,3 C 93 % 1009,9 hPa 0,0 l/m 11,9 km/h (2 Bft) S 180 4,3 C 2,6 C
01.01.2012 07:52 5,3 C 93 % 1009,9 hPa 0,0 l/m 7,6 km/h (2 Bft) S-SW 202 4,3 C 3,6 C
01.01.2012 07:57 5,3 C 93 % 1009,8 hPa 0,0 l/m 8,3 km/h (2 Bft) SO 135 4,3 C 3,4 C
01.01.2012 08:02 5,3 C 93 % 1009,9 hPa 0,0 l/m 8,3 km/h (2 Bft) S-SO 157 4,3 C 3,4 C
01.01.2012 08:07 5,4 C 93 % 1009,8 hPa 0,0 l/m 9,7 km/h (2 Bft) S-SO 157 4,4 C 3,2 C
01.01.2012 08:12 5,4 C 93 % 1009,9 hPa 0,0 l/m 4,0 km/h (1 Bft) S-SO 157 4,4 C 5,4 C
01.01.2012 08:17 5,5 C 93 % 1010,0 hPa 0,0 l/m 13,3 km/h (3 Bft) S 180 4,5 C 2,6 C
01.01.2012 08:22 5,6 C 93 % 1010,0 hPa 0,0 l/m 9,0 km/h (2 Bft) S 180 4,6 C 3,6 C
01.01.2012 08:27 5,6 C 93 % 1010,1 hPa 0,0 l/m 8,6 km/h (2 Bft) S 180 4,6 C 3,7 C
01.01.2012 08:32 5,6 C 93 % 1010,1 hPa 0,0 l/m 9,4 km/h (2 Bft) S-SO 157 4,6 C 3,5 C
01.01.2012 08:37 5,8 C 93 % 1010,0 hPa 0,0 l/m 6,1 km/h (2 Bft) SO 135 4,8 C 4,6 C
01.01.2012 08:42 5,8 C 93 % 1010,0 hPa 0,0 l/m 14,8 km/h (3 Bft) S-SW 202 4,8 C 2,8 C
01.01.2012 08:47 5,8 C 93 % 1010,0 hPa 0,0 l/m 11,5 km/h (2 Bft) SW 225 4,8 C 3,3 C
01.01.2012 08:52 5,8 C 93 % 1010,1 hPa 0,0 l/m 9,4 km/h (2 Bft) S 180 4,8 C 3,7 C
01.01.2012 08:57 5,9 C 93 % 1009,9 hPa 0,0 l/m 5,0 km/h (1 Bft) S-SO 157 4,9 C 5,1 C
01.01.2012 09:02 5,9 C 93 % 1009,8 hPa 0,0 l/m 3,2 km/h (1 Bft) SO 135 4,9 C 5,9 C
01.01.2012 09:07 5,9 C 93 % 1009,8 hPa 0,0 l/m 10,8 km/h (2 Bft) S-SO 157 4,9 C 3,6 C
01.01.2012 09:12 6,0 C 93 % 1009,8 hPa 0,0 l/m 6,8 km/h (2 Bft) S 180 5,0 C 4,6 C
01.01.2012 09:17 6,1 C 93 % 1009,7 hPa 0,0 l/m 6,5 km/h (2 Bft) S 180 5,1 C 4,8 C
01.01.2012 09:22 6,1 C 93 % 1009,8 hPa 0,0 l/m 11,9 km/h (2 Bft) S-SO 157 5,1 C 3,6 C
01.01.2012 09:27 6,2 C 93 % 1009,8 hPa 0,0 l/m 7,2 km/h (2 Bft) S 180 5,2 C 4,8 C
01.01.2012 09:32 6,2 C 93 % 1009,9 hPa 0,0 l/m 5,8 km/h (2 Bft) S-SW 202 5,2 C 5,2 C
01.01.2012 09:37 6,3 C 93 % 1009,9 hPa 0,0 l/m 6,1 km/h (2 Bft) S-SW 202 5,3 C 5,2 C
01.01.2012 09:42 6,3 C 93 % 1009,9 hPa 0,0 l/m 6,8 km/h (2 Bft) S-SW 202 5,3 C 5,0 C
01.01.2012 09:47 6,4 C 94 % 1009,8 hPa 0,0 l/m 5,4 km/h (1 Bft) S-SO 157 5,5 C 5,5 C
01.01.2012 09:52 6,4 C 94 % 1009,9 hPa 0,0 l/m 10,8 km/h (2 Bft) S 180 5,5 C 4,2 C
01.01.2012 09:57 6,5 C 94 % 1009,8 hPa 0,0 l/m 9,0 km/h (2 Bft) S-SO 157 5,6 C 4,7 C
01.01.2012 10:02 6,6 C 94 % 1009,6 hPa 0,5 l/m 4,0 km/h (1 Bft) SO 135 5,7 C 6,6 C
01.01.2012 10:07 6,6 C 94 % 1009,8 hPa 0,0 l/m 6,5 km/h (2 Bft) SW 225 5,7 C 5,4 C
01.01.2012 10:12 6,8 C 94 % 1009,7 hPa 0,0 l/m 11,2 km/h (2 Bft) W-SW 247 5,9 C 4,6 C
01.01.2012 10:17 6,9 C 94 % 1009,8 hPa 0,5 l/m 15,5 km/h (3 Bft) S-SW 202 6,0 C 4,0 C
01.01.2012 10:22 7,0 C 94 % 1009,7 hPa 0,0 l/m 10,1 km/h (2 Bft) S-SW 202 6,1 C 5,0 C
01.01.2012 10:27 7,0 C 94 % 1009,8 hPa 0,0 l/m 4,7 km/h (1 Bft) S-SO 157 6,1 C 6,5 C
01.01.2012 10:32 7,1 C 94 % 1009,8 hPa 0,5 l/m 5,8 km/h (2 Bft) S-SO 157 6,2 C 6,2 C
01.01.2012 10:37 7,2 C 94 % 1009,8 hPa 0,0 l/m 12,2 km/h (2 Bft) S-SW 202 6,3 C 4,9 C
01.01.2012 10:42 7,2 C 94 % 1009,8 hPa 0,0 l/m 7,9 km/h (2 Bft) S 180 6,3 C 5,7 C
01.01.2012 10:47 7,2 C 94 % 1009,9 hPa 0,0 l/m 7,6 km/h (2 Bft) S-SW 202 6,3 C 5,8 C
01.01.2012 10:52 7,2 C 94 % 1009,8 hPa 0,0 l/m 15,5 km/h (3 Bft) S-SW 202 6,3 C 4,4 C
01.01.2012 10:57 7,3 C 94 % 1009,6 hPa 0,0 l/m 5,0 km/h (1 Bft) S 180 6,4 C 6,7 C
01.01.2012 11:02 7,3 C 94 % 1009,4 hPa 0,0 l/m 8,3 km/h (2 Bft) S-SW 202 6,4 C 5,8 C
01.01.2012 11:07 7,4 C 94 % 1009,3 hPa 0,0 l/m 11,5 km/h (2 Bft) SW 225 6,5 C 5,2 C
01.01.2012 11:12 7,5 C 94 % 1009,4 hPa 0,0 l/m 13,3 km/h (3 Bft) S-SW 202 6,6 C 5,1 C
01.01.2012 11:17 7,6 C 94 % 1009,5 hPa 0,0 l/m 20,9 km/h (4 Bft) SW 225 6,7 C 4,3 C
01.01.2012 11:22 7,8 C 94 % 1009,5 hPa 0,0 l/m 16,6 km/h (3 Bft) W-SW 247 6,9 C 5,0 C
01.01.2012 11:27 7,9 C 94 % 1009,4 hPa 0,0 l/m 13,7 km/h (3 Bft) S 180 7,0 C 5,5 C
01.01.2012 11:32 7,9 C 94 % 1009,2 hPa 0,0 l/m 11,5 km/h (2 Bft) SO 135 7,0 C 5,9 C
01.01.2012 11:37 7,9 C 94 % 1009,4 hPa 0,0 l/m 9,4 km/h (2 Bft) S-SW 202 7,0 C 6,2 C
01.01.2012 11:42 8,0 C 94 % 1009,5 hPa 0,0 l/m 14,0 km/h (3 Bft) S 180 7,1 C 5,6 C
01.01.2012 11:47 8,1 C 94 % 1009,4 hPa 0,0 l/m 5,8 km/h (2 Bft) S-SO 157 7,2 C 7,3 C
01.01.2012 11:52 8,1 C 94 % 1009,3 hPa 0,0 l/m 9,4 km/h (2 Bft) SW 225 7,2 C 6,5 C
01.01.2012 11:57 8,2 C 94 % 1009,3 hPa 0,0 l/m 10,8 km/h (2 Bft) S 180 7,3 C 6,3 C
01.01.2012 12:02 8,2 C 94 % 1009,3 hPa 0,0 l/m 9,7 km/h (2 Bft) S-SW 202 7,3 C 6,5 C
01.01.2012 12:07 8,3 C 94 % 1009,3 hPa 0,0 l/m 9,4 km/h (2 Bft) S-SW 202 7,4 C 6,7 C
01.01.2012 12:12 8,3 C 93 % 1009,3 hPa 0,0 l/m 8,6 km/h (2 Bft) S 180 7,2 C 6,9 C
01.01.2012 12:17 8,4 C 93 % 1009,3 hPa 0,0 l/m 9,7 km/h (2 Bft) S 180 7,3 C 6,8 C
01.01.2012 12:22 8,4 C 93 % 1009,2 hPa 0,0 l/m 9,7 km/h (2 Bft) S-SW 202 7,3 C 6,8 C
01.01.2012 12:27 8,4 C 93 % 1009,3 hPa 0,0 l/m 10,1 km/h (2 Bft) SW 225 7,3 C 6,7 C
01.01.2012 12:32 8,4 C 93 % 1009,5 hPa 0,0 l/m 16,6 km/h (3 Bft) W-SW 247 7,3 C 5,7 C
01.01.2012 12:37 8,5 C 93 % 1009,4 hPa 0,5 l/m 5,8 km/h (2 Bft) SW 225 7,4 C 7,8 C
01.01.2012 12:42 8,5 C 93 % 1009,4 hPa 0,0 l/m 5,8 km/h (2 Bft) S 180 7,4 C 7,8 C
01.01.2012 12:47 8,5 C 93 % 1009,2 hPa 0,0 l/m 8,3 km/h (2 Bft) SW 225 7,4 C 7,2 C
01.01.2012 12:52 8,6 C 93 % 1009,2 hPa 0,0 l/m 13,7 km/h (3 Bft) SW 225 7,5 C 6,4 C
01.01.2012 12:57 8,6 C 93 % 1009,3 hPa 0,0 l/m 8,6 km/h (2 Bft) S-SW 202 7,5 C 7,2 C
01.01.2012 13:02 8,7 C 93 % 1009,3 hPa 0,0 l/m 7,9 km/h (2 Bft) S-SW 202 7,6 C 7,5 C
01.01.2012 13:07 8,8 C 94 % 1009,2 hPa 0,0 l/m 9,4 km/h (2 Bft) S 180 7,9 C 7,3 C
01.01.2012 13:12 8,8 C 94 % 1009,3 hPa 0,0 l/m 13,0 km/h (3 Bft) S-SW 202 7,9 C 6,7 C
01.01.2012 13:17 8,9 C 94 % 1009,2 hPa 0,0 l/m 5,0 km/h (1 Bft) S-SO 157 8,0 C 8,5 C
01.01.2012 13:22 8,9 C 94 % 1009,2 hPa 0,0 l/m 9,0 km/h (2 Bft) S-SO 157 8,0 C 7,5 C
01.01.2012 13:27 8,9 C 94 % 1009,2 hPa 0,0 l/m 12,2 km/h (2 Bft) S-SW 202 8,0 C 7,0 C
01.01.2012 13:32 8,9 C 94 % 1009,2 hPa 0,0 l/m 14,8 km/h (3 Bft) SW 225 8,0 C 6,6 C
01.01.2012 13:37 9,0 C 94 % 1009,3 hPa 0,0 l/m 13,3 km/h (3 Bft) S-SW 202 8,1 C 6,9 C
01.01.2012 13:42 9,0 C 94 % 1009,1 hPa 0,0 l/m 11,5 km/h (2 Bft) S 180 8,1 C 7,2 C
01.01.2012 13:47 9,0 C 94 % 1009,1 hPa 0,0 l/m 11,2 km/h (2 Bft) SW 225 8,1 C 7,2 C
01.01.2012 13:52 9,0 C 94 % 1009,1 hPa 0,0 l/m 6,1 km/h (2 Bft) S-SO 157 8,1 C 8,3 C
01.01.2012 13:57 9,1 C 94 % 1009,1 hPa 0,0 l/m 9,0 km/h (2 Bft) S 180 8,2 C 7,7 C
01.01.2012 14:02 9,1 C 94 % 1009,1 hPa 0,0 l/m 9,7 km/h (2 Bft) SW 225 8,2 C 7,6 C
01.01.2012 14:07 9,1 C 94 % 1008,9 hPa 0,0 l/m 6,5 km/h (2 Bft) S-SO 157 8,2 C 8,3 C
01.01.2012 14:12 9,2 C 94 % 1008,9 hPa 0,0 l/m 8,3 km/h (2 Bft) W-SW 247 8,3 C 8,0 C
01.01.2012 14:17 9,2 C 94 % 1009,0 hPa 0,0 l/m 6,1 km/h (2 Bft) SW 225 8,3 C 8,5 C
01.01.2012 14:22 9,3 C 94 % 1009,1 hPa 0,0 l/m 9,7 km/h (2 Bft) S-SW 202 8,4 C 7,8 C
01.01.2012 14:27 9,4 C 94 % 1009,1 hPa 0,0 l/m 7,2 km/h (2 Bft) W-SW 247 8,5 C 8,5 C
01.01.2012 14:32 9,5 C 94 % 1009,2 hPa 0,0 l/m 8,3 km/h (2 Bft) SW 225 8,6 C 8,4 C
01.01.2012 14:37 9,6 C 94 % 1009,2 hPa 0,0 l/m 14,0 km/h (3 Bft) W-SW 247 8,7 C 7,5 C
01.01.2012 14:42 9,7 C 94 % 1009,1 hPa 0,0 l/m 13,0 km/h (3 Bft) W-SW 247 8,8 C 7,8 C
01.01.2012 14:47 9,8 C 94 % 1009,3 hPa 0,0 l/m 10,4 km/h (2 Bft) SW 225 8,9 C 8,3 C
01.01.2012 14:52 9,8 C 94 % 1009,1 hPa 0,0 l/m 7,6 km/h (2 Bft) SW 225 8,9 C 8,9 C
01.01.2012 14:57 9,8 C 94 % 1009,0 hPa 0,0 l/m 8,6 km/h (2 Bft) SW 225 8,9 C 8,7 C
01.01.2012 15:02 9,8 C 94 % 1009,2 hPa 0,0 l/m 6,5 km/h (2 Bft) SW 225 8,9 C 9,1 C
01.01.2012 15:07 9,9 C 94 % 1009,1 hPa 0,0 l/m 9,0 km/h (2 Bft) W-SW 247 9,0 C 8,7 C
01.01.2012 15:12 9,9 C 94 % 1009,2 hPa 0,0 l/m 4,3 km/h (1 Bft) W-SW 247 9,0 C 9,9 C
01.01.2012 15:17 9,9 C 94 % 1009,1 hPa 0,0 l/m 6,5 km/h (2 Bft) SW 225 9,0 C 9,2 C
01.01.2012 15:22 9,9 C 94 % 1009,1 hPa 0,0 l/m 14,4 km/h (3 Bft) W-SW 247 9,0 C 7,9 C
01.01.2012 15:27 9,9 C 94 % 1009,4 hPa 0,0 l/m 7,9 km/h (2 Bft) W-SW 247 9,0 C 8,9 C
01.01.2012 15:32 10,0 C 94 % 1009,5 hPa 0,0 l/m 11,2 km/h (2 Bft) W-SW 247 9,1 C 8,4 C
01.01.2012 15:37 10,1 C 94 % 1009,5 hPa 0,0 l/m 6,8 km/h (2 Bft) SW 225 9,2 C 10,1 C
01.01.2012 15:42 10,1 C 94 % 1009,4 hPa 0,0 l/m 7,6 km/h (2 Bft) W-SW 247 9,2 C 10,1 C
01.01.2012 15:47 10,1 C 94 % 1009,3 hPa 0,0 l/m 13,0 km/h (3 Bft) W-SW 247 9,2 C 10,1 C
01.01.2012 15:52 10,1 C 94 % 1009,3 hPa 0,0 l/m 10,1 km/h (2 Bft) W-SW 247 9,2 C 10,1 C
01.01.2012 15:57 10,1 C 94 % 1009,3 hPa 0,0 l/m 6,1 km/h (2 Bft) SW 225 9,2 C 10,1 C
01.01.2012 16:02 10,1 C 94 % 1009,2 hPa 0,0 l/m 6,1 km/h (2 Bft) W-SW 247 9,2 C 10,1 C
01.01.2012 16:07 10,1 C 94 % 1009,3 hPa 0,0 l/m 7,2 km/h (2 Bft) SW 225 9,2 C 10,1 C
01.01.2012 16:12 10,1 C 94 % 1009,6 hPa 0,0 l/m 4,3 km/h (1 Bft) SW 225 9,2 C 10,1 C
01.01.2012 16:17 10,1 C 94 % 1009,8 hPa 0,0 l/m 5,8 km/h (2 Bft) W-SW 247 9,2 C 10,1 C
01.01.2012 16:22 10,1 C 94 % 1009,6 hPa 0,0 l/m 4,3 km/h (1 Bft) W-SW 247 9,2 C 10,1 C
01.01.2012 16:27 10,1 C 94 % 1009,7 hPa 0,0 l/m 7,9 km/h (2 Bft) SW 225 9,2 C 10,1 C
01.01.2012 16:32 10,1 C 94 % 1009,6 hPa 0,0 l/m 6,5 km/h (2 Bft) S-SW 202 9,2 C 10,1 C
01.01.2012 16:37 10,1 C 94 % 1009,6 hPa 0,0 l/m 8,3 km/h (2 Bft) SW 225 9,2 C 10,1 C
01.01.2012 16:42 10,1 C 94 % 1009,5 hPa 0,0 l/m 10,1 km/h (2 Bft) SW 225 9,2 C 10,1 C
01.01.2012 16:47 10,1 C 94 % 1009,7 hPa 0,0 l/m 2,5 km/h (1 Bft) S-SW 202 9,2 C 10,1 C
01.01.2012 16:52 10,1 C 94 % 1009,8 hPa 0,0 l/m 3,6 km/h (1 Bft) SW 225 9,2 C 10,1 C
01.01.2012 16:57 10,1 C 94 % 1009,8 hPa 0,0 l/m 4,0 km/h (1 Bft) S-SW 202 9,2 C 10,1 C
01.01.2012 17:02 10,1 C 94 % 1009,9 hPa 0,0 l/m 8,3 km/h (2 Bft) SW 225 9,2 C 10,1 C
01.01.2012 17:07 10,1 C 94 % 1009,8 hPa 0,0 l/m 7,9 km/h (2 Bft) S 180 9,2 C 10,1 C
01.01.2012 17:12 10,1 C 94 % 1009,9 hPa 0,0 l/m 9,4 km/h (2 Bft) S-SW 202 9,2 C 10,1 C
01.01.2012 17:17 10,1 C 94 % 1009,8 hPa 0,0 l/m 2,9 km/h (1 Bft) SW 225 9,2 C 10,1 C
01.01.2012 17:22 10,1 C 94 % 1009,8 hPa 0,0 l/m 8,6 km/h (2 Bft) S-SW 202 9,2 C 10,1 C
01.01.2012 17:27 10,1 C 94 % 1009,8 hPa 0,0 l/m 7,2 km/h (2 Bft) S-SO 157 9,2 C 10,1 C
01.01.2012 17:32 10,0 C 93 % 1009,8 hPa 0,0 l/m 5,0 km/h (1 Bft) S-SW 202 8,9 C 9,8 C
01.01.2012 17:37 9,9 C 93 % 1009,9 hPa 0,0 l/m 3,2 km/h (1 Bft) S-SW 202 8,8 C 9,9 C
01.01.2012 17:42 9,9 C 93 % 1009,7 hPa 0,0 l/m 5,0 km/h (1 Bft) S 180 8,8 C 9,6 C
01.01.2012 17:47 9,9 C 93 % 1009,7 hPa 0,0 l/m 8,3 km/h (2 Bft) S 180 8,8 C 8,8 C
01.01.2012 17:52 9,9 C 93 % 1009,8 hPa 0,0 l/m 10,1 km/h (2 Bft) S-SW 202 8,8 C 8,5 C
01.01.2012 17:57 9,9 C 93 % 1009,7 hPa 0,0 l/m 5,8 km/h (2 Bft) S-SW 202 8,8 C 9,4 C
01.01.2012 18:02 9,8 C 93 % 1009,8 hPa 0,0 l/m 4,0 km/h (1 Bft) S 180 8,7 C 9,8 C
01.01.2012 18:07 9,8 C 93 % 1009,8 hPa 0,0 l/m 5,8 km/h (2 Bft) S-SO 157 8,7 C 9,3 C
01.01.2012 18:12 9,8 C 93 % 1009,7 hPa 0,0 l/m 4,3 km/h (1 Bft) S-SO 157 8,7 C 9,8 C
01.01.2012 18:17 9,8 C 93 % 1009,6 hPa 0,0 l/m 6,1 km/h (2 Bft) S-SW 202 8,7 C 9,2 C
01.01.2012 18:22 9,7 C 93 % 1009,5 hPa 0,0 l/m 5,8 km/h (2 Bft) S-SW 202 8,6 C 9,2 C
01.01.2012 18:27 9,6 C 93 % 1009,6 hPa 0,0 l/m 5,8 km/h (2 Bft) S-SO 157 8,5 C 9,1 C
01.01.2012 18:32 9,6 C 93 % 1009,6 hPa 0,0 l/m 4,7 km/h (1 Bft) S-SW 202 8,5 C 9,4 C
01.01.2012 18:37 9,5 C 93 % 1009,3 hPa 0,0 l/m 5,8 km/h (2 Bft) S-SO 157 8,4 C 9,0 C
01.01.2012 18:42 9,5 C 93 % 1009,5 hPa 0,0 l/m 4,0 km/h (1 Bft) S 180 8,4 C 9,5 C
01.01.2012 18:47 9,5 C 93 % 1009,4 hPa 0,0 l/m 0,0 km/h (0 Bft) S-SO 157 8,4 C 9,5 C
01.01.2012 18:52 9,5 C 93 % 1009,3 hPa 0,0 l/m 1,1 km/h (1 Bft) S-SO 157 8,4 C 9,5 C
01.01.2012 18:57 9,5 C 93 % 1009,3 hPa 0,0 l/m 2,2 km/h (1 Bft) SO 135 8,4 C 9,5 C
01.01.2012 19:02 9,5 C 93 % 1009,3 hPa 0,0 l/m 3,6 km/h (1 Bft) S 180 8,4 C 9,5 C
01.01.2012 19:07 9,4 C 93 % 1009,5 hPa 0,0 l/m 4,7 km/h (1 Bft) S-SO 157 8,3 C 9,2 C
01.01.2012 19:12 9,4 C 93 % 1009,2 hPa 0,0 l/m 2,5 km/h (1 Bft) S-SO 157 8,3 C 9,4 C
01.01.2012 19:17 9,4 C 93 % 1009,3 hPa 0,0 l/m 10,8 km/h (2 Bft) S-SO 157 8,3 C 7,8 C
01.01.2012 19:22 9,4 C 93 % 1009,3 hPa 0,0 l/m 4,3 km/h (1 Bft) S 180 8,3 C 9,4 C
01.01.2012 19:27 9,4 C 93 % 1009,3 hPa 0,0 l/m 4,0 km/h (1 Bft) S 180 8,3 C 9,4 C
01.01.2012 19:32 9,4 C 94 % 1009,3 hPa 0,0 l/m 7,6 km/h (2 Bft) S 180 8,5 C 8,4 C
01.01.2012 19:37 9,5 C 94 % 1009,3 hPa 0,0 l/m 4,3 km/h (1 Bft) S 180 8,6 C 9,5 C
01.01.2012 19:42 9,4 C 94 % 1009,4 hPa 0,0 l/m 4,7 km/h (1 Bft) S 180 8,5 C 9,2 C
01.01.2012 19:47 9,4 C 94 % 1009,3 hPa 0,0 l/m 3,2 km/h (1 Bft) S 180 8,5 C 9,4 C
01.01.2012 19:52 9,4 C 94 % 1009,3 hPa 0,0 l/m 1,8 km/h (1 Bft) SO 135 8,5 C 9,4 C
01.01.2012 19:57 9,5 C 94 % 1009,2 hPa 0,0 l/m 9,0 km/h (2 Bft) S-SO 157 8,6 C 8,2 C
01.01.2012 20:02 9,5 C 94 % 1009,2 hPa 0,0 l/m 4,0 km/h (1 Bft) S-SO 157 8,6 C 9,5 C
01.01.2012 20:07 9,5 C 94 % 1009,1 hPa 0,0 l/m 2,5 km/h (1 Bft) S-SO 157 8,6 C 9,5 C
01.01.2012 20:12 9,5 C 94 % 1009,0 hPa 0,0 l/m 0,0 km/h (0 Bft) S 180 8,6 C 9,5 C
01.01.2012 20:17 9,5 C 94 % 1008,7 hPa 0,5 l/m 3,6 km/h (1 Bft) S-SO 157 8,6 C 9,5 C
01.01.2012 20:22 9,6 C 94 % 1008,6 hPa 0,0 l/m 4,7 km/h (1 Bft) S-SO 157 8,7 C 9,4 C
01.01.2012 20:27 9,6 C 94 % 1008,5 hPa 0,0 l/m 3,6 km/h (1 Bft) SO 135 8,7 C 9,6 C
01.01.2012 20:32 9,6 C 94 % 1008,4 hPa 0,0 l/m 5,0 km/h (1 Bft) SO 135 8,7 C 9,3 C
01.01.2012 20:37 9,6 C 94 % 1008,5 hPa 0,0 l/m 7,6 km/h (2 Bft) S-SO 157 8,7 C 8,6 C
01.01.2012 20:42 9,6 C 94 % 1008,6 hPa 0,0 l/m 9,0 km/h (2 Bft) S-SO 157 8,7 C 8,3 C
01.01.2012 20:47 9,6 C 94 % 1008,5 hPa 0,0 l/m 7,2 km/h (2 Bft) S-SW 202 8,7 C 8,7 C
01.01.2012 20:52 9,7 C 94 % 1008,4 hPa 0,0 l/m 6,8 km/h (2 Bft) SO 135 8,8 C 8,9 C
01.01.2012 20:57 9,7 C 94 % 1008,3 hPa 0,0 l/m 3,6 km/h (1 Bft) S-SO 157 8,8 C 9,7 C
01.01.2012 21:02 9,8 C 94 % 1008,2 hPa 0,0 l/m 10,1 km/h (2 Bft) S 180 8,9 C 8,4 C
01.01.2012 21:07 9,8 C 94 % 1008,0 hPa 0,0 l/m 3,6 km/h (1 Bft) S 180 8,9 C 9,8 C
01.01.2012 21:12 9,8 C 94 % 1008,0 hPa 0,0 l/m 4,0 km/h (1 Bft) S 180 8,9 C 9,8 C
01.01.2012 21:17 9,8 C 94 % 1007,9 hPa 0,0 l/m 10,4 km/h (2 Bft) S 180 8,9 C 8,3 C
01.01.2012 21:22 9,8 C 94 % 1008,0 hPa 0,0 l/m 6,1 km/h (2 Bft) S 180 8,9 C 9,2 C
01.01.2012 21:27 9,8 C 94 % 1007,8 hPa 0,0 l/m 7,9 km/h (2 Bft) S 180 8,9 C 8,8 C
01.01.2012 21:32 9,8 C 94 % 1007,7 hPa 0,0 l/m 6,5 km/h (2 Bft) S-SW 202 8,9 C 9,1 C
01.01.2012 21:37 9,8 C 94 % 1007,6 hPa 0,0 l/m 8,6 km/h (2 Bft) S-SW 202 8,9 C 8,7 C
01.01.2012 21:42 9,8 C 94 % 1007,4 hPa 0,0 l/m 13,0 km/h (3 Bft) S 180 8,9 C 7,9 C
01.01.2012 21:47 9,8 C 94 % 1007,6 hPa 0,0 l/m 5,4 km/h (1 Bft) S 180 8,9 C 9,4 C
01.01.2012 21:52 9,8 C 94 % 1007,5 hPa 0,0 l/m 6,1 km/h (2 Bft) S 180 8,9 C 9,2 C
01.01.2012 21:57 9,8 C 94 % 1007,2 hPa 0,0 l/m 4,0 km/h (1 Bft) SO 135 8,9 C 9,8 C
01.01.2012 22:02 9,8 C 94 % 1007,1 hPa 0,0 l/m 4,7 km/h (1 Bft) S-SO 157 8,9 C 9,6 C
01.01.2012 22:07 9,8 C 94 % 1007,3 hPa 0,0 l/m 7,6 km/h (2 Bft) S-SO 157 8,9 C 8,9 C
01.01.2012 22:12 9,8 C 94 % 1007,0 hPa 0,0 l/m 7,9 km/h (2 Bft) S 180 8,9 C 8,8 C
01.01.2012 22:17 9,8 C 94 % 1006,9 hPa 0,0 l/m 7,2 km/h (2 Bft) S-SO 157 8,9 C 8,9 C
01.01.2012 22:22 9,8 C 94 % 1006,9 hPa 0,0 l/m 13,3 km/h (3 Bft) S-SO 157 8,9 C 7,9 C
01.01.2012 22:27 9,8 C 93 % 1006,9 hPa 0,0 l/m 13,3 km/h (3 Bft) S 180 8,7 C 7,9 C
01.01.2012 22:32 9,8 C 93 % 1006,9 hPa 0,0 l/m 4,0 km/h (1 Bft) S-SW 202 8,7 C 9,8 C
01.01.2012 22:37 9,9 C 93 % 1006,7 hPa 0,0 l/m 18,7 km/h (3 Bft) S 180 8,8 C 7,4 C
01.01.2012 22:42 9,9 C 93 % 1006,6 hPa 0,0 l/m 16,6 km/h (3 Bft) S 180 8,8 C 7,6 C
01.01.2012 22:47 9,9 C 93 % 1006,6 hPa 0,0 l/m 11,5 km/h (2 Bft) S-SO 157 8,8 C 8,3 C
01.01.2012 22:52 9,9 C 93 % 1006,3 hPa 0,0 l/m 13,7 km/h (3 Bft) S 180 8,8 C 8,0 C
01.01.2012 22:57 9,9 C 93 % 1006,2 hPa 0,0 l/m 14,4 km/h (3 Bft) S 180 8,8 C 7,9 C
01.01.2012 23:02 9,9 C 93 % 1006,2 hPa 0,0 l/m 16,9 km/h (3 Bft) S 180 8,8 C 7,6 C
01.01.2012 23:07 9,9 C 93 % 1006,2 hPa 0,0 l/m 14,8 km/h (3 Bft) S-SW 202 8,8 C 7,8 C
01.01.2012 23:12 9,9 C 93 % 1005,9 hPa 0,0 l/m 18,4 km/h (3 Bft) SO 135 8,8 C 7,4 C
01.01.2012 23:17 9,9 C 93 % 1005,9 hPa 0,0 l/m 11,2 km/h (2 Bft) SO 135 8,8 C 8,3 C
01.01.2012 23:22 9,9 C 93 % 1005,7 hPa 0,0 l/m 7,2 km/h (2 Bft) SO 135 8,8 C 9,1 C
01.01.2012 23:27 9,9 C 93 % 1005,5 hPa 0,0 l/m 11,2 km/h (2 Bft) S-SW 202 8,8 C 8,3 C
01.01.2012 23:32 9,9 C 93 % 1005,4 hPa 0,0 l/m 7,9 km/h (2 Bft) S 180 8,8 C 8,9 C
01.01.2012 23:37 9,9 C 93 % 1005,2 hPa 0,0 l/m 6,8 km/h (2 Bft) S-SO 157 8,8 C 9,2 C
01.01.2012 23:42 9,9 C 93 % 1005,0 hPa 0,0 l/m 9,7 km/h (2 Bft) S-SO 157 8,8 C 8,6 C
01.01.2012 23:47 9,9 C 93 % 1004,9 hPa 0,0 l/m 12,2 km/h (2 Bft) S 180 8,8 C 8,2 C
01.01.2012 23:52 9,9 C 93 % 1004,9 hPa 0,0 l/m 19,1 km/h (3 Bft) S 180 8,8 C 7,3 C
01.01.2012 23:57 9,9 C 93 % 1004,7 hPa 0,0 l/m 7,2 km/h (2 Bft) S 180 8,8 C 9,1 C
_ Min-Zeit 00:02 00:02 23:57 - 00:37 - - 00:02 00:57
Minimum _ 3,4 C 89 % 1004,7 hPa - 0,0 km/h (0 Bft) - - 1,8 C 0,9 C
_ Max-Zeit 15:37 09:47 00:02 02:02 11:17 - - 15:37 15:37
Maximum _ 10,1 C 94 % 1011,4 hPa 0,5 l/m 20,9 km/h
SW (4 Bft)
- - 9,2 C 10,1 C
Durchschnitt _ 7,3 C 93 % 1009,5 hPa #3,6 l/m 7,5 km/h (2 Bft) S-SO - 6,2 C 6,2 C
(c) by David Heller